Time;durP1;ratioP1;P1;durP2;ratioP2;P2;SDS_P1;SDS_P2;PMS_P1;PMS_P2;Temp;Humidity;BMP_temperature;BMP_pressure;BME280_temperature;BME280_humidity;BME280_pressure;Samples;Min_cycle;Max_cycle;Signal;HPM_P1;HPM_P2
2024/01/28 00:02:30;;;;;;;;;;;;;;;;;;;;;
2024/01/28 00:09:00;;;;;;;;;;;;;;;;;;;;;
2024/01/28 00:11:59;;;;;;;;;;;;;;;;;;;;;
2024/01/28 00:14:59;;;;;;;9.60;4.47;;;;;;;0.04;97.60;103204.41;4824923;29;20040;-95
2024/01/28 00:17:31;;;;;;;8.57;3.60;;;;;;;0.03;97.84;103192.41;4812706;29;20050;-94
2024/01/28 00:20:09;;;;;;;6.93;3.50;;;;;;;0.04;98.01;103183.94;4940344;28;20116;-93
2024/01/28 00:23:27;;;;;;;;;;;;;;;;;;;;;
2024/01/28 00:26:55;;;;;;;;;;;;;;;;;;;;;
2024/01/28 00:32:41;;;;;;;;;;;;;;;;;;;;;
2024/01/28 00:35:22;;;;;;;;;;;;;;;;;;;;;
2024/01/28 00:38:00;;;;;;;9.70;3.42;;;;;;;0.13;97.81;103174.22;4955971;28;20043;-95
2024/01/28 00:40:38;;;;;;;7.73;3.33;;;;;;;0.13;97.93;103168.22;4958979;28;20023;-93
2024/01/28 00:43:14;;;;;;;6.13;3.33;;;;;;;0.11;98.19;103165.59;4963574;28;20480;-94
2024/01/28 00:46:20;;;;;;;7.97;3.63;;;;;;;0.12;97.86;103161.31;4942692;28;20123;-94
2024/01/28 00:49:19;;;;;;;;;;;;;;;;;;;;;
2024/01/28 00:55:08;;;;;;;;;;;;;;;;;;;;;
2024/01/28 00:58:02;;;;;;;;;;;;;;;;;;;;;
2024/01/28 01:01:23;;;;;;;;;;;;;;;;;;;;;
2024/01/28 01:04:31;;;;;;;9.23;3.80;;;;;;;0.13;96.75;103150.28;4952607;28;20037;-96
2024/01/28 01:07:13;;;;;;;8.87;3.20;;;;;;;0.09;96.98;103148.34;4947677;28;20042;-94
2024/01/28 01:10:26;;;;;;;;;;;;;;;;;;;;;
2024/01/28 01:13:31;;;;;;;;;;;;;;;;;;;;;
2024/01/28 01:16:19;;;;;;;7.23;4.00;;;;;;;0.03;96.88;103141.22;4959540;28;20089;-95
2024/01/28 01:18:49;;;;;;;8.83;3.40;;;;;;;0.03;96.79;103133.56;4962666;28;20167;-96
2024/01/28 01:21:20;;;;;;;7.53;3.53;;;;;;;0.00;97.29;103138.53;4956915;28;20027;-93
2024/01/28 01:23:46;;;;;;;9.10;3.42;;;;;;;0.01;97.58;103136.84;4957956;28;20486;-95
2024/01/28 01:26:23;;;;;;;8.80;3.60;;;;;;;-0.01;97.60;103141.88;4959866;28;20031;-95
2024/01/28 01:29:00;;;;;;;6.67;3.93;;;;;;;-0.02;97.38;103132.44;4955830;28;20031;-95
2024/01/28 01:31:28;;;;;;;7.33;3.70;;;;;;;-0.01;97.41;103134.19;4952252;28;20031;-93
2024/01/28 01:33:58;;;;;;;9.20;3.63;;;;;;;0.00;97.60;103130.84;4961822;28;20465;-96
2024/01/28 01:36:34;;;;;;;;;;;;;;;;;;;;;
2024/01/28 01:39:04;;;;;;;9.00;3.30;;;;;;;-0.02;97.75;103123.06;4960147;28;20489;-96
2024/01/28 01:41:32;;;;;;;6.63;3.40;;;;;;;-0.04;97.16;103121.22;4960147;28;20031;-96
2024/01/28 01:44:05;;;;;;;6.67;3.57;;;;;;;-0.06;96.96;103115.16;4961695;28;20049;-94
2024/01/28 01:46:31;;;;;;;6.63;3.33;;;;;;;-0.12;96.96;103117.34;4961921;28;20035;-94
2024/01/28 01:48:59;;;;;;;6.77;4.00;;;;;;;-0.17;96.57;103128.19;4946314;28;20042;-94
2024/01/28 01:51:30;;;;;;;6.63;3.67;;;;;;;-0.19;97.05;103134.03;4959429;28;20046;-95
2024/01/28 01:54:02;;;;;;;6.82;3.53;;;;;;;-0.22;97.30;103133.88;4944194;28;20046;-96
2024/01/28 01:56:33;;;;;;;8.27;3.63;;;;;;;-0.24;97.31;103141.47;4945731;28;20023;-94
2024/01/28 01:59:01;;;;;;;6.82;3.60;;;;;;;-0.24;97.25;103138.91;4959379;28;20027;-94
2024/01/28 02:01:28;;;;;;;7.87;3.80;;;;;;;-0.23;97.49;103142.34;4962621;28;20480;-95
2024/01/28 02:03:58;;;;;;;8.83;3.80;;;;;;;-0.24;97.50;103145.69;4962794;28;20031;-95
2024/01/28 02:06:27;;;;;;;8.30;3.40;;;;;;;-0.25;97.21;103139.69;4966752;28;20031;-95
2024/01/28 02:09:08;;;;;;;8.23;3.63;;;;;;;-0.27;96.79;103142.97;4965617;28;20098;-95
2024/01/28 02:11:36;;;;;;;6.75;3.40;;;;;;;-0.32;96.59;103147.81;4966749;28;20480;-93
2024/01/28 02:14:07;;;;;;;8.07;3.67;;;;;;;-0.33;97.22;103148.59;4950965;28;20090;-95
2024/01/28 02:16:35;;;;;;;7.23;3.43;;;;;;;-0.36;97.42;103143.34;4971219;28;20026;-95
2024/01/28 02:19:01;;;;;;;7.57;3.60;;;;;;;-0.38;97.35;103140.69;4950773;28;20551;-94
2024/01/28 02:21:29;;;;;;;10.87;3.70;;;;;;;-0.40;96.85;103137.16;4962733;28;20034;-94
2024/01/28 02:23:54;;;;;;;7.20;3.53;;;;;;;-0.43;97.12;103137.00;4965163;28;20033;-94
2024/01/28 02:26:22;;;;;;;8.00;3.60;;;;;;;-0.44;97.24;103131.78;4963268;28;20035;-93
2024/01/28 02:28:49;;;;;;;11.07;3.70;;;;;;;-0.44;97.05;103127.56;4965124;28;20449;-96
2024/01/28 02:31:15;;;;;;;7.70;3.67;;;;;;;-0.50;96.59;103119.53;4957048;28;20035;-95
2024/01/28 02:33:40;;;;;;;10.10;4.03;;;;;;;-0.54;96.75;103115.03;4961639;28;20050;-96
2024/01/28 02:36:07;;;;;;;7.93;3.93;;;;;;;-0.61;97.05;103111.25;4961448;28;20026;-95
2024/01/28 02:38:32;;;;;;;11.13;4.27;;;;;;;-0.64;96.82;103099.19;4964422;28;20030;-94
2024/01/28 02:40:59;;;;;;;8.97;3.97;;;;;;;-0.65;96.84;103099.06;4963728;28;20446;-96
2024/01/28 02:43:29;;;;;;;6.73;3.90;;;;;;;-0.68;96.99;103097.22;4946580;28;20115;-93
2024/01/28 02:45:55;;;;;;;8.13;3.83;;;;;;;-0.68;97.02;103079.34;4962567;28;20043;-95
2024/01/28 02:48:21;;;;;;;9.47;4.17;;;;;;;-0.68;96.79;103075.88;4959567;28;20369;-93
2024/01/28 02:50:46;;;;;;;10.30;4.13;;;;;;;-0.69;96.69;103081.81;4966892;28;20027;-95
2024/01/28 02:53:14;;;;;;;8.27;4.10;;;;;;;-0.73;97.69;103077.31;4962207;28;20090;-94
2024/01/28 02:55:49;;;;;;;8.83;4.37;;;;;;;-0.75;97.06;103081.47;4964642;28;20085;-95
2024/01/28 02:58:17;;;;;;;8.57;4.30;;;;;;;-0.77;97.42;103077.13;4964445;28;20038;-93
2024/01/28 03:00:45;;;;;;;8.27;3.97;;;;;;;-0.77;97.65;103078.84;4967051;28;20031;-96
2024/01/28 03:03:10;;;;;;;6.63;3.67;;;;;;;-0.78;97.94;103072.81;4959360;28;20031;-94
2024/01/28 03:05:39;;;;;;;8.83;3.70;;;;;;;-0.80;97.22;103076.97;4966420;28;20508;-95
2024/01/28 03:08:08;;;;;;;7.90;3.60;;;;;;;-0.82;98.00;103072.56;4964374;28;20030;-94
2024/01/28 03:10:36;;;;;;;8.17;3.73;;;;;;;-0.83;97.34;103066.56;4961022;28;20045;-94
2024/01/28 03:13:04;;;;;;;8.37;3.30;;;;;;;-0.85;98.09;103051.94;4964713;28;20104;-94
2024/01/28 03:15:32;;;;;;;7.50;3.47;;;;;;;-0.83;98.19;103065.69;4966933;28;20023;-93
2024/01/28 03:18:00;;;;;;;10.07;3.37;;;;;;;-0.86;98.02;103053.63;4968763;28;20121;-94
2024/01/28 03:20:28;;;;;;;7.57;3.30;;;;;;;-0.86;98.59;103048.50;4964593;28;20050;-96
2024/01/28 03:22:53;;;;;;;6.73;2.87;;;;;;;-0.84;98.78;103054.56;4963778;28;20027;-96
2024/01/28 03:25:19;;;;;;;7.97;3.13;;;;;;;-0.82;98.77;103052.13;4959633;28;20105;-96
2024/01/28 03:27:44;;;;;;;7.67;3.13;;;;;;;-0.81;98.76;103051.31;4949684;28;20023;-94
2024/01/28 03:30:16;;;;;;;5.77;3.10;;;;;;;-0.81;98.33;103054.75;4967160;28;20034;-95
2024/01/28 03:32:43;;;;;;;6.70;3.00;;;;;;;-0.83;98.63;103051.22;4966795;28;20428;-95
2024/01/28 03:35:10;;;;;;;6.70;3.00;;;;;;;-0.81;98.35;103051.31;4961925;28;20034;-96
2024/01/28 03:37:37;;;;;;;7.87;3.23;;;;;;;-0.82;98.13;103052.97;4946204;28;20023;-95
2024/01/28 03:40:05;;;;;;;5.13;2.93;;;;;;;-0.84;97.61;103054.56;4963993;28;20345;-95
2024/01/28 03:42:31;;;;;;;7.37;3.20;;;;;;;-0.84;98.43;103053.69;4946756;28;20038;-94
2024/01/28 03:44:56;;;;;;;7.67;3.37;;;;;;;-0.86;98.50;103056.19;4948462;28;20060;-95
2024/01/28 03:47:29;;;;;;;6.87;3.07;;;;;;;-0.87;98.18;103064.63;4963612;28;20297;-92
2024/01/28 03:49:57;;;;;;;7.67;3.07;;;;;;;-0.89;97.57;103068.78;4964136;28;20027;-95
2024/01/28 03:52:22;;;;;;;6.57;3.10;;;;;;;-0.91;97.91;103060.13;4961383;28;20139;-96
2024/01/28 03:54:50;;;;;;;5.47;3.00;;;;;;;-0.90;97.48;103059.34;4964406;28;20472;-95
2024/01/28 03:57:16;;;;;;;7.07;2.93;;;;;;;-0.92;97.30;103055.81;4961002;28;20023;-94
2024/01/28 03:59:41;;;;;;;8.67;3.23;;;;;;;-0.94;96.87;103059.97;4963618;28;20089;-93
2024/01/28 04:02:07;;;;;;;8.77;3.13;;;;;;;-0.99;96.59;103049.47;4966889;28;20023;-94
2024/01/28 04:04:36;;;;;;;7.67;3.10;;;;;;;-1.00;97.20;103049.38;4942435;28;20027;-93
2024/01/28 04:07:02;;;;;;;7.33;2.87;;;;;;;-1.06;97.31;103039.69;4961415;28;20035;-95
2024/01/28 04:09:27;;;;;;;8.53;3.20;;;;;;;-1.09;97.09;103042.06;4962950;28;20023;-94
2024/01/28 04:11:52;;;;;;;8.30;3.27;;;;;;;-1.13;96.61;103038.44;4965000;28;20472;-93
2024/01/28 04:14:18;;;;;;;8.60;3.13;;;;;;;-1.15;97.15;103032.38;4962549;28;20035;-95
2024/01/28 04:16:43;;;;;;;7.50;2.67;;;;;;;-1.17;97.23;103033.94;4948851;28;20037;-93
2024/01/28 04:19:16;;;;;;;7.60;2.90;;;;;;;-1.15;97.36;103042.59;4923382;29;20028;-93
2024/01/28 04:21:41;;;;;;;7.10;2.87;;;;;;;-1.17;97.56;103028.84;4924024;29;20028;-94
2024/01/28 04:24:07;;;;;;;6.30;2.80;;;;;;;-1.16;97.40;103030.59;4923361;29;20038;-94
2024/01/28 04:26:33;;;;;;;6.50;2.80;;;;;;;-1.20;97.17;103032.91;4922342;29;20041;-95
2024/01/28 04:28:59;;;;;;;8.93;2.80;;;;;;;-1.23;96.80;103033.59;4919878;29;20036;-94
2024/01/28 04:31:26;;;;;;;7.47;3.13;;;;;;;-1.25;97.26;103014.75;4921688;29;20460;-94
2024/01/28 04:33:53;;;;;;;7.40;2.97;;;;;;;-1.23;97.73;103023.38;4926384;29;20039;-93
2024/01/28 04:36:18;;;;;;;7.03;3.10;;;;;;;-1.25;97.57;103030.06;4931296;29;20040;-94
2024/01/28 04:38:43;;;;;;;9.47;3.33;;;;;;;-1.28;97.47;103035.00;4927482;29;20510;-95
2024/01/28 04:41:11;;;;;;;9.80;3.57;;;;;;;-1.28;97.54;103024.78;4926389;29;20444;-95
2024/01/28 04:43:43;;;;;;;6.23;2.50;;;;;;;-1.31;97.55;103020.38;4922767;29;20473;-94
2024/01/28 04:46:08;;;;;;;5.13;2.90;;;;;;;-1.32;97.12;103015.19;4923095;29;20064;-94
2024/01/28 04:48:37;;;;;;;6.80;2.80;;;;;;;-1.35;97.15;103012.44;4922696;29;20419;-95
2024/01/28 04:51:03;;;;;;;8.50;3.47;;;;;;;-1.38;97.07;103010.59;4929528;29;20097;-94
2024/01/28 04:53:28;;;;;;;7.37;2.70;;;;;;;-1.41;96.92;103008.75;4921925;29;20032;-94
2024/01/28 04:55:53;;;;;;;7.90;3.60;;;;;;;-1.43;97.12;103000.13;4922121;29;20108;-92
2024/01/28 04:58:19;;;;;;;6.83;3.10;;;;;;;-1.45;97.10;102995.72;4922851;29;20036;-95
2024/01/28 05:00:44;;;;;;;6.67;3.10;;;;;;;-1.46;97.50;102997.38;4926797;29;20481;-94
2024/01/28 05:03:10;;;;;;;7.13;3.20;;;;;;;-1.49;97.81;102992.09;4924266;29;20119;-95
2024/01/28 05:05:36;;;;;;;7.23;3.33;;;;;;;-1.48;97.90;102995.53;4918935;29;20039;-95
2024/01/28 05:08:01;;;;;;;5.87;2.80;;;;;;;-1.48;98.74;102988.75;4928635;29;20474;-95
2024/01/28 05:10:27;;;;;;;4.60;2.60;;;;;;;-1.47;97.67;102993.06;4920749;29;20035;-94
2024/01/28 05:12:53;;;;;;;7.70;3.00;;;;;;;-1.46;97.72;102984.63;4921985;29;20031;-94
2024/01/28 05:15:18;;;;;;;7.83;3.57;;;;;;;-1.46;98.62;102991.41;4925479;29;20028;-93
2024/01/28 05:17:46;;;;;;;6.53;3.30;;;;;;;-1.46;98.54;102992.28;4926687;29;20107;-94
2024/01/28 05:20:12;;;;;;;9.27;3.50;;;;;;;-1.44;98.78;102998.34;4919956;29;20517;-95
2024/01/28 05:22:38;;;;;;;8.17;2.90;;;;;;;-1.42;99.02;102986.56;4921207;29;20135;-94
2024/01/28 05:25:04;;;;;;;7.53;3.37;;;;;;;-1.41;99.21;102988.31;4927082;29;20426;-94
2024/01/28 05:27:30;;;;;;;7.60;3.17;;;;;;;-1.38;99.15;102983.41;4926068;29;20412;-93
2024/01/28 05:29:58;;;;;;;8.87;3.70;;;;;;;-1.38;99.36;102982.50;4925100;29;20035;-94
2024/01/28 05:32:24;;;;;;;5.83;3.17;;;;;;;-1.38;99.07;102978.31;4920594;29;20028;-95
2024/01/28 05:34:50;;;;;;;9.50;3.10;;;;;;;-1.37;98.99;102974.06;4921429;29;20026;-93
2024/01/28 05:37:16;;;;;;;7.47;3.43;;;;;;;-1.34;99.35;102983.56;4925209;29;20024;-93
2024/01/28 05:39:43;;;;;;;9.57;3.70;;;;;;;-1.34;99.46;102979.34;4926934;29;20035;-95
2024/01/28 05:42:09;;;;;;;7.70;3.30;;;;;;;-1.34;99.11;102973.34;4930196;29;20032;-93
2024/01/28 05:44:34;;;;;;;7.97;3.37;;;;;;;-1.34;98.43;102970.78;4925897;29;20035;-93
2024/01/28 05:47:00;;;;;;;6.57;2.90;;;;;;;-1.35;98.57;102969.03;4927248;29;20024;-94
2024/01/28 05:49:25;;;;;;;7.60;3.07;;;;;;;-1.39;98.58;102956.13;4932474;29;20032;-95
2024/01/28 05:51:50;;;;;;;7.20;3.40;;;;;;;-1.39;98.72;102957.75;4920027;29;20028;-94
2024/01/28 05:54:16;;;;;;;8.73;3.53;;;;;;;-1.43;98.61;102948.16;4922420;29;20098;-93
2024/01/28 05:56:42;;;;;;;7.90;3.57;;;;;;;-1.45;99.05;102945.53;4923717;29;20032;-93
2024/01/28 05:59:08;;;;;;;7.13;3.50;;;;;;;-1.43;98.65;102946.50;4929174;29;20062;-93
2024/01/28 06:01:35;;;;;;;11.43;3.27;;;;;;;-1.46;98.98;102942.91;4924971;29;20032;-94
2024/01/28 06:04:01;;;;;;;8.83;3.60;;;;;;;-1.47;98.87;102941.13;4927441;29;20103;-93
2024/01/28 06:06:26;;;;;;;9.10;3.77;;;;;;;-1.48;98.82;102934.28;4925284;29;20111;-94
2024/01/28 06:08:51;;;;;;;9.30;3.50;;;;;;;-1.49;99.36;102938.47;4929141;29;20039;-94
2024/01/28 06:11:17;;;;;;;9.83;3.33;;;;;;;-1.51;99.05;102929.84;4922540;29;20175;-93
2024/01/28 06:13:42;;;;;;;8.17;3.77;;;;;;;-1.51;99.31;102919.63;4923772;29;20051;-94
2024/01/28 06:16:08;;;;;;;7.20;3.33;;;;;;;-1.50;98.87;102921.41;4927908;29;20036;-93
2024/01/28 06:18:37;;;;;;;7.80;3.37;;;;;;;-1.51;99.62;102922.19;4928095;29;20054;-92
2024/01/28 06:21:02;;;;;;;7.60;3.57;;;;;;;-1.51;99.41;102919.63;4924974;29;20099;-95
2024/01/28 06:23:28;;;;;;;8.33;3.33;;;;;;;-1.52;99.31;102910.22;4925350;29;20461;-93
2024/01/28 06:25:53;;;;;;;8.17;3.70;;;;;;;-1.53;99.39;102911.91;4929318;29;20066;-94
2024/01/28 06:28:21;;;;;;;7.93;3.30;;;;;;;-1.51;98.95;102911.97;4928293;29;20319;-92
2024/01/28 06:30:48;;;;;;;7.80;3.60;;;;;;;-1.53;99.23;102900.78;4925463;29;20151;-93
2024/01/28 06:33:13;;;;;;;8.73;3.67;;;;;;;-1.52;99.56;102902.56;4925932;29;20091;-92
2024/01/28 06:35:39;;;;;;;7.43;3.60;;;;;;;-1.51;99.49;102895.78;4926214;29;20024;-94
2024/01/28 06:38:04;;;;;;;8.30;3.80;;;;;;;-1.53;99.80;102900.78;4926774;29;20170;-94
2024/01/28 06:40:31;;;;;;;7.57;3.40;;;;;;;-1.53;99.34;102898.25;4926526;29;20038;-94
2024/01/28 06:42:56;;;;;;;8.37;3.50;;;;;;;-1.53;99.24;102895.69;4926332;29;20043;-94
2024/01/28 06:45:22;;;;;;;7.40;3.33;;;;;;;-1.54;99.73;102889.72;4929536;29;20040;-94
2024/01/28 06:47:47;;;;;;;9.03;3.77;;;;;;;-1.53;99.64;102895.69;4925515;29;20031;-94
2024/01/28 06:50:12;;;;;;;8.80;3.27;;;;;;;-1.53;99.20;102896.59;4921611;29;20028;-94
2024/01/28 06:52:38;;;;;;;7.53;3.40;;;;;;;-1.54;99.74;102891.41;4931542;29;20027;-92
2024/01/28 06:55:05;;;;;;;6.80;3.23;;;;;;;-1.51;99.88;102904.31;4926231;29;20421;-94
2024/01/28 06:57:31;;;;;;;6.90;3.63;;;;;;;-1.53;99.67;102895.69;4926610;29;20503;-95
2024/01/28 06:59:56;;;;;;;7.57;3.90;;;;;;;-1.53;99.60;102901.69;4923689;29;20129;-94
2024/01/28 07:02:25;;;;;;;8.13;3.13;;;;;;;-1.55;98.88;102897.31;4923327;29;20397;-95
2024/01/28 07:04:51;;;;;;;6.77;3.10;;;;;;;-1.56;98.48;102896.41;4926538;29;20028;-95
2024/01/28 07:07:16;;;;;;;6.70;2.97;;;;;;;-1.58;98.53;102902.22;4926939;29;20063;-93
2024/01/28 07:09:42;;;;;;;6.60;3.27;;;;;;;-1.63;97.83;102899.41;4924474;29;20028;-93
2024/01/28 07:12:08;;;;;;;6.07;3.30;;;;;;;-1.68;97.84;102896.56;4921518;29;20040;-94
2024/01/28 07:14:34;;;;;;;8.97;3.40;;;;;;;-1.67;97.65;102905.13;4909993;29;20409;-93
2024/01/28 07:16:59;;;;;;;9.17;4.00;;;;;;;-1.72;98.57;102889.56;4926037;29;20060;-93
2024/01/28 07:19:25;;;;;;;7.90;3.30;;;;;;;-1.72;98.30;102892.09;4925623;29;20040;-93
2024/01/28 07:21:51;;;;;;;9.07;4.00;;;;;;;-1.71;98.61;102891.28;4923369;29;20067;-94
2024/01/28 07:24:17;;;;;;;6.07;3.30;;;;;;;-1.72;98.58;102884.44;4930640;29;20062;-94
2024/01/28 07:26:43;;;;;;;9.97;4.40;;;;;;;-1.71;98.55;102886.19;4924827;29;20051;-94
2024/01/28 07:29:09;;;;;;;7.43;3.60;;;;;;;-1.71;98.03;102880.22;4926501;29;20083;-94
2024/01/28 07:31:35;;;;;;;9.20;3.93;;;;;;;-1.71;97.46;102888.72;4922523;29;20040;-93
2024/01/28 07:34:03;;;;;;;6.73;3.67;;;;;;;-1.71;97.57;102886.19;4925281;29;20535;-94
2024/01/28 07:36:30;;;;;;;10.17;3.60;;;;;;;-1.70;98.25;102887.06;4925559;29;20468;-95
2024/01/28 07:38:56;;;;;;;7.47;3.37;;;;;;;-1.68;98.70;102893.16;4914178;29;20443;-94
2024/01/28 07:41:24;;;;;;;9.23;3.53;;;;;;;-1.68;98.97;102891.47;4928936;29;20037;-93
2024/01/28 07:43:50;;;;;;;9.77;3.60;;;;;;;-1.65;99.07;102895.00;4923765;29;20035;-95
2024/01/28 07:46:16;;;;;;;7.50;3.87;;;;;;;-1.65;99.09;102889.88;4925647;29;20028;-95
2024/01/28 07:48:42;;;;;;;6.53;3.53;;;;;;;-1.61;98.57;102886.72;4924156;29;20403;-95
2024/01/28 07:51:08;;;;;;;6.10;3.20;;;;;;;-1.62;98.71;102879.88;4925644;29;20024;-94
2024/01/28 07:53:34;;;;;;;8.40;3.20;;;;;;;-1.61;97.90;102882.50;4925643;29;20119;-94
2024/01/28 07:56:02;;;;;;;5.83;3.20;;;;;;;-1.59;98.48;102877.50;4926427;29;20024;-94
2024/01/28 07:58:28;;;;;;;6.60;3.30;;;;;;;-1.56;98.62;102881.09;4926408;29;20087;-94
2024/01/28 08:00:54;;;;;;;5.33;2.93;;;;;;;-1.53;98.42;102872.72;4921486;29;20032;-93
2024/01/28 08:03:19;;;;;;;8.67;3.73;;;;;;;-1.51;98.68;102873.69;4924649;29;20116;-92
2024/01/28 08:05:47;;;;;;;8.53;3.70;;;;;;;-1.47;98.93;102869.66;4925411;29;20032;-93
2024/01/28 08:08:12;;;;;;;8.37;3.43;;;;;;;-1.47;98.75;102875.63;4926500;29;20024;-93
2024/01/28 08:10:37;;;;;;;7.00;3.40;;;;;;;-1.40;99.49;102885.41;4924682;29;20032;-94
2024/01/28 08:13:03;;;;;;;9.70;3.60;;;;;;;-1.38;99.54;102885.47;4924048;29;20032;-93
2024/01/28 08:15:31;;;;;;;6.47;2.93;;;;;;;-1.34;100.00;102876.31;4924061;29;20484;-94
2024/01/28 08:17:56;;;;;;;8.40;3.80;;;;;;;-1.28;99.65;102881.78;4945499;28;20051;-95
2024/01/28 08:20:25;;;;;;;8.70;3.40;;;;;;;-1.26;99.34;102881.06;4962053;28;20511;-93
2024/01/28 08:22:50;;;;;;;6.93;3.33;;;;;;;-1.24;99.79;102878.63;4949840;28;20023;-93
2024/01/28 08:25:16;;;;;;;6.00;3.10;;;;;;;-1.23;99.55;102878.69;4946760;28;20038;-93
2024/01/28 08:27:44;;;;;;;9.67;3.60;;;;;;;-1.18;99.49;102873.81;4945527;28;20480;-95
2024/01/28 08:30:11;;;;;;;7.67;4.10;;;;;;;-1.14;100.00;102875.75;4964337;28;20076;-93
2024/01/28 08:32:36;;;;;;;7.73;4.00;;;;;;;-1.13;100.00;102872.41;4967033;28;20121;-92
2024/01/28 08:35:03;;;;;;;8.43;3.80;;;;;;;-1.07;100.00;102869.31;4959507;28;20054;-93
2024/01/28 08:37:28;;;;;;;7.37;3.80;;;;;;;-1.05;100.00;102869.41;4949475;28;20022;-92
2024/01/28 08:39:54;;;;;;;9.00;3.70;;;;;;;-1.05;100.00;102860.06;4964348;28;20039;-92
2024/01/28 08:42:19;;;;;;;9.30;3.73;;;;;;;-0.99;100.00;102860.41;4966763;28;20031;-93
2024/01/28 08:44:47;;;;;;;6.83;3.50;;;;;;;-0.96;100.00;102863.16;4961456;28;20054;-93
2024/01/28 08:47:13;;;;;;;9.73;3.70;;;;;;;-0.89;100.00;102866.91;4965358;28;20485;-93
2024/01/28 08:49:38;;;;;;;6.30;3.80;;;;;;;-0.88;100.00;102857.56;4962820;28;20114;-93
2024/01/28 08:52:04;;;;;;;7.30;3.77;;;;;;;-0.84;100.00;102856.94;4956032;28;20041;-94
2024/01/28 08:54:33;;;;;;;5.43;3.33;;;;;;;-0.80;100.00;102861.41;4959784;28;20469;-93
2024/01/28 08:56:59;;;;;;;6.87;3.67;;;;;;;-0.77;100.00;102857.34;4941584;28;20034;-93
2024/01/28 08:59:25;;;;;;;7.27;3.87;;;;;;;-0.73;100.00;102863.50;4943381;28;20031;-92
2024/01/28 09:01:54;;;;;;;6.97;3.70;;;;;;;-0.67;100.00;102868.03;4946661;28;20035;-92
2024/01/28 09:04:19;;;;;;;7.60;4.13;;;;;;;-0.65;100.00;102862.22;4961461;28;20444;-93
2024/01/28 09:06:45;;;;;;;10.40;4.13;;;;;;;-0.62;100.00;102864.06;4959664;28;20031;-92
2024/01/28 09:09:11;;;;;;;8.43;3.93;;;;;;;-0.58;100.00;102854.88;4962866;28;20069;-92
2024/01/28 09:11:36;;;;;;;7.37;3.83;;;;;;;-0.54;100.00;102844.00;4962565;28;20035;-93
2024/01/28 09:14:02;;;;;;;6.43;3.80;;;;;;;-0.50;100.00;102844.25;4969301;28;20041;-92
2024/01/28 09:16:27;;;;;;;6.57;3.40;;;;;;;-0.47;100.00;102833.31;4967270;28;20027;-92
2024/01/28 09:18:53;;;;;;;8.87;4.00;;;;;;;-0.40;100.00;102832.81;4964778;28;20409;-93
2024/01/28 09:21:18;;;;;;;9.13;3.70;;;;;;;-0.37;100.00;102832.13;4968116;28;20122;-91
2024/01/28 09:23:43;;;;;;;7.97;3.80;;;;;;;-0.29;100.00;102837.63;4967618;28;20042;-91
2024/01/28 09:26:09;;;;;;;6.40;3.70;;;;;;;-0.27;100.00;102831.78;4951183;28;20046;-92
2024/01/28 09:28:34;;;;;;;9.10;4.03;;;;;;;-0.23;100.00;102825.13;4947810;28;20045;-91
2024/01/28 09:31:00;;;;;;;7.50;3.90;;;;;;;-0.17;100.00;102833.13;4969033;28;20102;-92
2024/01/28 09:33:26;;;;;;;7.50;3.73;;;;;;;-0.13;100.00;102823.94;4966977;28;20031;-92
2024/01/28 09:35:54;;;;;;;7.53;3.33;;;;;;;-0.07;100.00;102826.81;4966070;28;20027;-92
2024/01/28 09:38:19;;;;;;;7.23;3.80;;;;;;;-0.02;100.00;102828.78;4967205;28;20468;-92
2024/01/28 09:40:45;;;;;;;6.13;3.43;;;;;;;0.03;100.00;102829.00;4968466;28;20038;-93
2024/01/28 09:43:29;;;;;;;9.57;4.10;;;;;;;0.11;100.00;102817.50;4967191;28;20486;-92
2024/01/28 09:45:55;;;;;;;6.77;3.67;;;;;;;0.18;100.00;102822.91;4966888;28;20031;-93
2024/01/28 09:48:21;;;;;;;7.40;3.60;;;;;;;0.22;100.00;102819.69;4953438;28;20065;-92
2024/01/28 09:50:47;;;;;;;5.63;3.37;;;;;;;0.28;100.00;102820.88;4970867;28;20027;-91
2024/01/28 09:53:15;;;;;;;7.47;3.63;;;;;;;0.35;100.00;102824.59;4967930;28;20034;-92
2024/01/28 09:55:41;;;;;;;8.23;3.67;;;;;;;0.38;100.00;102817.06;4966734;28;20106;-91
2024/01/28 09:58:10;;;;;;;6.03;3.63;;;;;;;0.44;100.00;102812.25;4965643;28;20114;-93
2024/01/28 10:00:37;;;;;;;7.37;3.63;;;;;;;0.50;100.00;102821.06;4969720;28;20054;-92
2024/01/28 10:03:03;;;;;;;5.13;3.07;;;;;;;0.56;100.00;102816.19;4951100;28;20023;-93
2024/01/28 10:05:29;;;;;;;6.97;3.27;;;;;;;0.63;100.00;102817.38;4966767;28;20135;-91
2024/01/28 10:08:04;;;;;;;10.70;3.27;;;;;;;0.71;100.00;102818.63;4948863;28;20086;-92
2024/01/28 10:10:32;;;;;;;6.03;3.03;;;;;;;0.77;100.00;102806.09;4968479;28;20489;-91
2024/01/28 10:12:57;;;;;;;5.93;3.40;;;;;;;0.83;100.00;102806.38;4949458;28;20098;-92
2024/01/28 10:15:26;;;;;;;5.73;3.43;;;;;;;0.90;100.00;102807.53;4969047;28;20030;-93
2024/01/28 10:17:52;;;;;;;7.07;3.80;;;;;;;0.95;99.82;102803.50;4934345;29;20516;-92
2024/01/28 10:20:22;;;;;;;7.53;3.73;;;;;;;0.99;99.97;102797.72;4924516;29;20065;-92
2024/01/28 10:22:48;;;;;;;6.53;3.50;;;;;;;1.05;100.00;102797.97;4925391;29;20036;-93
2024/01/28 10:25:15;;;;;;;6.83;3.73;;;;;;;1.09;100.00;102799.03;4923764;29;20111;-93
2024/01/28 10:27:41;;;;;;;7.03;3.27;;;;;;;1.15;99.80;102799.28;4905717;29;20028;-93
2024/01/28 10:30:07;;;;;;;6.90;3.60;;;;;;;1.20;99.06;102797.81;4927755;29;20071;-93
2024/01/28 10:32:33;;;;;;;6.60;3.23;;;;;;;1.27;98.67;102791.25;4925941;29;20039;-93
2024/01/28 10:34:58;;;;;;;7.17;3.50;;;;;;;1.33;98.85;102794.09;4928017;29;20024;-93
2024/01/28 10:37:27;;;;;;;8.70;3.37;;;;;;;1.38;98.31;102795.97;4926822;29;20039;-93
2024/01/28 10:39:56;;;;;;;7.63;3.50;;;;;;;1.44;97.96;102794.59;4927035;29;20108;-92
2024/01/28 10:42:25;;;;;;;6.03;3.20;;;;;;;1.50;98.09;102784.56;4923622;29;20071;-94
2024/01/28 10:44:54;;;;;;;8.53;3.40;;;;;;;1.54;97.98;102783.00;4924377;29;20024;-93
2024/01/28 10:47:24;;;;;;;5.17;2.97;;;;;;;1.62;97.67;102775.66;4926511;29;20031;-93
2024/01/28 10:49:52;;;;;;;7.33;3.03;;;;;;;1.64;97.50;102769.78;4925580;29;20086;-93
2024/01/28 10:52:19;;;;;;;7.20;3.47;;;;;;;1.70;97.50;102773.44;4927261;29;20549;-94
2024/01/28 10:54:46;;;;;;;6.57;3.20;;;;;;;1.76;97.32;102771.09;4926076;29;20043;-93
2024/01/28 10:57:12;;;;;;;7.73;2.97;;;;;;;1.79;97.28;102763.53;4926226;29;20462;-93
2024/01/28 10:59:39;;;;;;;7.57;3.10;;;;;;;1.87;96.72;102759.63;4924232;29;20024;-93
2024/01/28 11:02:06;;;;;;;6.07;3.00;;;;;;;1.93;96.72;102757.28;4926300;29;20038;-93
2024/01/28 11:04:33;;;;;;;5.57;2.93;;;;;;;2.02;96.38;102755.91;4926171;29;20080;-92
2024/01/28 11:06:58;;;;;;;6.60;3.80;;;;;;;2.09;96.35;102750.19;4924719;29;20034;-93
2024/01/28 11:09:23;;;;;;;6.43;3.00;;;;;;;2.15;95.46;102742.75;4926151;29;20020;-92
2024/01/28 11:11:49;;;;;;;6.07;3.30;;;;;;;2.20;95.42;102737.78;4928805;29;20032;-94
2024/01/28 11:14:14;;;;;;;6.77;3.27;;;;;;;2.27;95.42;102737.22;4924752;29;20490;-93
2024/01/28 11:16:40;;;;;;;8.27;3.20;;;;;;;2.33;95.13;102732.31;4921687;29;20043;-94
2024/01/28 11:19:07;;;;;;;8.20;3.50;;;;;;;2.39;95.22;102736.84;4919922;29;20381;-93
2024/01/28 11:21:33;;;;;;;7.50;3.63;;;;;;;2.45;95.29;102729.34;4925051;29;20472;-93
2024/01/28 11:23:59;;;;;;;6.87;3.40;;;;;;;2.52;94.87;102733.91;4925582;29;20024;-93
2024/01/28 11:26:25;;;;;;;7.00;3.47;;;;;;;2.58;95.37;102717.84;4927248;29;20397;-94
2024/01/28 11:28:53;;;;;;;6.60;3.30;;;;;;;2.67;94.44;102722.47;4924532;29;20118;-92
2024/01/28 11:31:29;;;;;;;7.67;3.50;;;;;;;2.75;94.36;102720.19;4924622;29;20465;-92
2024/01/28 11:34:12;;;;;;;7.13;3.23;;;;;;;2.82;94.23;102712.75;4920820;29;20110;-93
2024/01/28 11:36:41;;;;;;;6.57;3.20;;;;;;;2.88;94.04;102707.84;4926017;29;20430;-93
2024/01/28 11:39:19;;;;;;;6.80;2.90;;;;;;;2.96;93.81;102694.38;4923355;29;20038;-92
2024/01/28 11:41:45;;;;;;;7.23;3.23;;;;;;;3.02;94.37;102694.59;4923609;29;20055;-92
2024/01/28 11:44:13;;;;;;;6.70;3.13;;;;;;;3.08;94.21;102697.38;4923811;29;20062;-94
2024/01/28 11:46:39;;;;;;;7.27;3.30;;;;;;;3.16;94.04;102690.81;4927997;29;20482;-91
2024/01/28 11:49:05;;;;;;;5.80;3.27;;;;;;;3.27;93.42;102692.88;4926959;29;20093;-91
2024/01/28 11:51:51;;;;;;;7.13;3.03;;;;;;;3.35;93.27;102683.75;4922428;29;20020;-96
2024/01/28 11:54:19;;;;;;;7.13;3.20;;;;;;;3.44;92.82;102668.59;4926389;29;20525;-93
2024/01/28 11:56:54;;;;;;;;;;;;;;;;;;;;;
2024/01/28 11:59:20;;;;;;;6.27;3.20;;;;;;;3.63;90.85;102675.25;4926188;29;20036;-94
2024/01/28 12:02:19;;;;;;;;;;;;;;;;;;;;;
2024/01/28 12:04:41;;;;;;;6.13;3.10;;;;;;;3.86;91.48;102674.25;4922705;29;20032;-93
2024/01/28 12:07:07;;;;;;;6.60;3.10;;;;;;;3.97;91.07;102675.44;4927555;29;20474;-91